Aérodrome :
LOGIN :

S'inscrire | Disclaimer

   EN    FR    IT 

 










Légende :    VFR   VFR Marginal   IFR   IFR Intensif   IFR Très Intensif
Visi : 
Plafond : 
>= 8 km
>= 3000ft
5 à 8 km
1000 à 3000 ft
1500m à 5 km
500 à 1000 ft
800 à 1500m
200 à 500 ft
< 800m
< 200 ft
Symboles :   Orages  Brouillard  Fortes neiges  Fortes précipitations  Vent > 20 kt
SIGMETs :   Divers  Orages  Givrage  Turbulence  Onde Orograph.  Cendres Volcan.






- Altitude de l'aérodrome : 70 ft
- Code IATA : LEI


LEAM - Almeria

DERNIER METAR :
  • 240430Z 33011KT 9999 OVC080 13/07 Q1019

METARs EXPIRÉS :
  • 240400Z 33010KT 9999 OVC085 13/06 Q1019
  • 240330Z AUTO 32011KT 290V360 9999 BKN087 13/06 Q1019
  • 240300Z AUTO 32012KT 9999 BKN090 13/06 Q1019
  • 240230Z AUTO 32012KT 290V350 9999 OVC090 13/06 Q1019
  • 240200Z AUTO 32011KT 9999 BKN090 12/07 Q1019

TAF TAF LEAM
Valide du 24 à 03h jusqu'au 25 à 03h UTC


240200Z 2403/2503 35008KT 9999 FEW040 TX17/2415Z TN09/2406Z
PROB40
TEMPO 2411/2420 19010KT



MET'MAP, la Météo Aéronautique d'un coup d'oeil ! - Copyright ORBIFLY Décembre 2007 - Disclaimer

ORBIFLY MET'MAP TEAM :

Programmation & Développement : Alexandra Zaïnal
Sur une idée originale de : Baudouin d'Aumeries
Assistance à la programmation : Marc-Olivier Méhu
Soutien technique & logistique : Manuel Goepfert

Contact : metmap@orbifly.com




SOURCES & CREDITS :

   NOAA